Aviation Digital Data Service (ADDS)

Output produced by METARs form (2158 UTC 23 March 2017)
found at http://aviationweather.gov/adds/metars/
 
KRME 231720Z 2318/2418 28007KT P6SM SCT250 
     FM240600 12007KT P6SM BKN120 
     FM240900 13007KT P6SM BKN050 OVC100 
     FM241200 14007KT 4SM -SNPL OVC025 
     FM241600 17008KT 5SM -RA BR OVC010